createdAt,value
2023-04-15T00:02:18.721Z,1.47
2023-04-15T00:04:51.447Z,2.08
2023-04-15T00:07:24.037Z,1.88
2023-04-15T00:09:58.083Z,1.90
2023-04-15T00:12:30.708Z,1.73
2023-04-15T00:15:03.684Z,4.03
2023-04-15T00:17:36.508Z,5.53
2023-04-15T00:20:09.427Z,8.85
2023-04-15T00:22:41.961Z,9.05
2023-04-15T00:25:15.632Z,8.45
2023-04-15T00:27:48.162Z,6.20
2023-04-15T00:30:20.828Z,5.25
2023-04-15T00:32:53.853Z,6.43
2023-04-15T00:35:28.156Z,5.95
2023-04-15T00:38:00.891Z,6.65
2023-04-15T00:40:33.684Z,7.20
2023-04-15T00:43:06.290Z,9.20
2023-04-15T00:45:38.992Z,9.85
2023-04-15T00:48:12.645Z,9.88
2023-04-15T00:50:45.157Z,7.90
2023-04-15T00:53:17.757Z,4.97
2023-04-15T00:55:51.445Z,3.55
2023-04-15T00:58:24.367Z,2.40
2023-04-15T01:00:57.569Z,1.95
2023-04-15T01:03:30.628Z,1.98
2023-04-15T01:08:37.103Z,1.88
2023-04-15T01:11:10.926Z,1.63
2023-04-15T01:13:43.907Z,1.52
2023-04-15T01:16:17.585Z,1.70
2023-04-15T01:18:50.470Z,1.30
2023-04-15T01:21:24.632Z,1.73
2023-04-15T01:23:58.648Z,1.30
2023-04-15T01:26:31.387Z,1.30
2023-04-15T01:29:03.932Z,1.70
2023-04-15T01:31:36.630Z,1.25
2023-04-15T01:34:09.453Z,1.05
2023-04-15T01:36:42.218Z,1.42
2023-04-15T01:39:15.478Z,1.33
2023-04-15T01:44:22.059Z,1.25
2023-04-15T01:46:54.737Z,1.30
2023-04-15T01:49:27.924Z,1.30
2023-04-15T01:54:33.382Z,1.13
2023-04-15T01:57:05.937Z,1.27
2023-04-15T01:59:38.575Z,1.17
2023-04-15T02:02:11.530Z,1.63
2023-04-15T02:04:45.027Z,1.17
2023-04-15T02:07:17.784Z,1.00
2023-04-15T02:09:50.422Z,1.08
2023-04-15T02:12:23.095Z,1.23
2023-04-15T02:14:56.117Z,1.10
2023-04-15T02:17:28.992Z,1.10
2023-04-15T02:20:02.101Z,1.45
2023-04-15T02:25:08.595Z,1.10
2023-04-15T02:27:41.180Z,1.35
2023-04-15T02:30:14.838Z,0.95
2023-04-15T02:32:47.718Z,1.30
2023-04-15T02:35:20.455Z,1.52
2023-04-15T02:37:53.014Z,1.15
2023-04-15T02:40:25.661Z,1.88
2023-04-15T02:42:58.234Z,1.45
2023-04-15T02:45:30.974Z,1.42
2023-04-15T02:48:07.714Z,1.00
2023-04-15T02:50:41.803Z,1.10
2023-04-15T02:53:17.805Z,0.93
2023-04-15T02:55:50.318Z,1.27
2023-04-15T02:58:22.859Z,1.95
2023-04-15T03:00:55.610Z,1.55
2023-04-15T03:03:31.383Z,1.70
2023-04-15T03:06:04.166Z,1.33
2023-04-15T03:08:37.366Z,1.50
2023-04-15T03:11:10.116Z,1.67
2023-04-15T03:13:43.564Z,1.58
2023-04-15T03:16:27.624Z,1.50
2023-04-15T03:19:00.391Z,2.17
2023-04-15T03:21:33.284Z,2.28
2023-04-15T03:24:06.419Z,2.45
2023-04-15T03:26:39.098Z,2.30
2023-04-15T03:29:17.561Z,1.98
2023-04-15T03:34:23.450Z,1.30
2023-04-15T03:36:56.815Z,1.30
2023-04-15T03:39:29.326Z,1.00
2023-04-15T03:42:02.213Z,1.05
2023-04-15T03:44:34.768Z,1.38
2023-04-15T03:47:07.846Z,1.20
2023-04-15T03:49:40.356Z,0.90
2023-04-15T03:52:13.018Z,1.30
2023-04-15T03:54:46.234Z,1.30
2023-04-15T03:59:51.500Z,1.38
2023-04-15T04:02:24.282Z,1.23
2023-04-15T04:04:57.016Z,1.20
2023-04-15T04:07:30.158Z,1.50
2023-04-15T04:10:04.045Z,1.30
2023-04-15T04:12:36.574Z,1.10
2023-04-15T04:15:09.679Z,1.42
2023-04-15T04:17:42.560Z,1.30
2023-04-15T04:20:15.188Z,1.17
2023-04-15T04:22:47.708Z,1.23
2023-04-15T04:25:20.170Z,1.10
2023-04-15T04:27:52.714Z,2.30
2023-04-15T04:30:25.298Z,3.35
2023-04-15T04:32:58.037Z,1.38
2023-04-15T04:35:30.697Z,1.10
2023-04-15T04:38:03.525Z,1.35
2023-04-15T04:40:36.475Z,1.40
2023-04-15T04:43:09.673Z,1.00
2023-04-15T04:48:14.785Z,1.17
2023-04-15T04:50:47.463Z,1.88
2023-04-15T04:53:20.094Z,1.10
2023-04-15T04:55:52.661Z,1.30
2023-04-15T04:58:25.256Z,1.50
2023-04-15T05:00:58.658Z,1.60
2023-04-15T05:03:31.665Z,1.17
2023-04-15T05:06:06.795Z,0.98
2023-04-15T05:08:40.368Z,1.20
2023-04-15T05:11:13.290Z,1.35
2023-04-15T05:13:46.145Z,1.10
2023-04-15T05:16:20.214Z,1.50
2023-04-15T05:18:53.013Z,1.25
2023-04-15T05:21:26.212Z,1.40
2023-04-15T05:23:58.763Z,1.52
2023-04-15T05:26:31.727Z,1.50
2023-04-15T05:29:04.461Z,1.30
2023-04-15T05:31:37.439Z,1.83
2023-04-15T05:34:10.692Z,2.72
2023-04-15T05:36:43.277Z,1.95
2023-04-15T05:39:15.874Z,2.10
2023-04-15T05:41:48.430Z,2.25
2023-04-15T05:44:21.480Z,2.53
2023-04-15T05:46:54.015Z,2.10
2023-04-15T05:49:26.567Z,2.05
2023-04-15T05:51:59.011Z,2.53
2023-04-15T05:54:31.651Z,2.58
2023-04-15T05:57:04.277Z,2.00
2023-04-15T05:59:37.150Z,2.30
2023-04-15T06:02:10.893Z,2.30
2023-04-15T06:04:44.075Z,2.38
2023-04-15T06:09:49.026Z,2.15
2023-04-15T06:12:21.667Z,1.70
2023-04-15T06:14:54.120Z,2.33
2023-04-15T06:17:26.731Z,1.90
2023-04-15T06:19:59.251Z,2.13
2023-04-15T06:22:31.817Z,1.92
2023-04-15T06:25:04.781Z,2.05
2023-04-15T06:27:37.420Z,1.88
2023-04-15T06:30:10.458Z,1.75
2023-04-15T06:32:43.085Z,1.40
2023-04-15T06:35:16.250Z,1.50
2023-04-15T06:40:21.224Z,1.48
2023-04-15T06:42:56.410Z,2.10
2023-04-15T06:45:28.969Z,1.80
2023-04-15T06:48:01.691Z,1.58
2023-04-15T06:50:35.871Z,2.15
2023-04-15T06:53:08.502Z,2.05
2023-04-15T06:55:41.683Z,1.90
2023-04-15T07:00:46.915Z,1.52
2023-04-15T07:03:19.542Z,1.83
2023-04-15T07:05:52.142Z,1.77
2023-04-15T07:08:24.888Z,1.90
2023-04-15T07:10:57.399Z,2.08
2023-04-15T07:13:32.728Z,1.83
2023-04-15T07:16:05.598Z,2.00
2023-04-15T07:18:38.267Z,1.60
2023-04-15T07:21:11.531Z,1.95
2023-04-15T07:23:44.172Z,1.73
2023-04-15T07:26:16.829Z,2.03
2023-04-15T07:28:50.092Z,2.30
2023-04-15T07:31:22.647Z,1.65
2023-04-15T07:33:55.496Z,1.65
2023-04-15T07:36:29.372Z,1.98
2023-04-15T07:39:04.078Z,1.60
2023-04-15T07:41:37.293Z,1.55
2023-04-15T07:44:10.206Z,1.90
2023-04-15T07:46:43.090Z,1.83
2023-04-15T07:51:49.384Z,2.05
2023-04-15T07:54:22.180Z,1.75
2023-04-15T07:56:54.862Z,1.58
2023-04-15T07:59:30.285Z,1.67
2023-04-15T08:02:02.933Z,1.90
2023-04-15T08:04:35.700Z,1.70
2023-04-15T08:07:08.412Z,1.55
2023-04-15T08:09:40.999Z,1.92
2023-04-15T08:12:13.728Z,1.80
2023-04-15T08:14:46.945Z,1.50
2023-04-15T08:17:19.833Z,1.48
2023-04-15T08:19:52.530Z,2.15
2023-04-15T08:22:25.240Z,1.52
2023-04-15T08:25:02.012Z,1.70
2023-04-15T08:27:34.643Z,1.77
2023-04-15T08:30:07.983Z,1.60
2023-04-15T08:32:40.954Z,3.50
2023-04-15T08:37:46.663Z,1.95
2023-04-15T08:40:19.381Z,3.15
2023-04-15T08:42:54.996Z,1.73
2023-04-15T08:45:27.718Z,2.22
2023-04-15T08:48:03.678Z,1.55
2023-04-15T08:50:36.229Z,1.90
2023-04-15T08:53:09.718Z,1.92
2023-04-15T08:55:47.104Z,1.80
2023-04-15T08:58:20.143Z,1.88
2023-04-15T09:00:52.833Z,2.20
2023-04-15T09:03:25.936Z,2.03
2023-04-15T09:05:59.081Z,1.67
2023-04-15T09:11:04.908Z,1.63
2023-04-15T09:13:37.582Z,1.92
2023-04-15T09:16:10.673Z,2.10
2023-04-15T09:18:43.442Z,1.70
2023-04-15T09:21:17.654Z,1.70
2023-04-15T09:24:01.199Z,1.92
2023-04-15T09:26:40.573Z,2.03
2023-04-15T09:29:16.125Z,3.03
2023-04-15T09:31:48.725Z,1.75
2023-04-15T09:34:21.853Z,1.85
2023-04-15T09:36:58.370Z,1.60
2023-04-15T09:39:52.629Z,1.67
2023-04-15T09:42:25.527Z,2.88
2023-04-15T09:45:12.279Z,1.80
2023-04-15T09:47:44.893Z,1.85
2023-04-15T09:50:17.835Z,2.03
2023-04-15T09:52:50.558Z,1.55
2023-04-15T09:55:23.347Z,2.55
2023-04-15T09:57:55.945Z,1.92
2023-04-15T10:00:31.261Z,1.65
2023-04-15T10:03:06.338Z,2.47
2023-04-15T10:05:39.940Z,1.50
2023-04-15T10:08:13.419Z,1.30
2023-04-15T10:10:48.246Z,1.85
2023-04-15T10:13:30.638Z,1.70
2023-04-15T10:16:11.041Z,1.57
2023-04-15T10:18:51.157Z,1.88
2023-04-15T10:21:24.019Z,2.70
2023-04-15T10:23:58.655Z,1.90
2023-04-15T10:26:31.548Z,1.58
2023-04-15T10:29:05.366Z,1.30
2023-04-15T10:31:42.150Z,1.92
2023-04-15T10:34:16.196Z,1.60
2023-04-15T10:36:50.383Z,1.63
2023-04-15T10:39:35.007Z,1.85
2023-04-15T10:42:12.459Z,1.90
2023-04-15T10:44:57.658Z,1.60
2023-04-15T10:47:33.493Z,1.70
2023-04-15T10:50:06.631Z,1.70
2023-04-15T10:55:19.179Z,1.77
2023-04-15T10:57:57.419Z,1.58
2023-04-15T11:00:32.339Z,1.70
2023-04-15T11:03:09.530Z,2.00
2023-04-15T11:05:42.279Z,2.47
2023-04-15T11:08:15.467Z,2.00
2023-04-15T11:10:52.799Z,2.00
2023-04-15T11:13:27.518Z,1.95
2023-04-15T11:16:02.050Z,1.92
2023-04-15T11:18:35.458Z,2.63
2023-04-15T11:23:47.204Z,2.15
2023-04-15T11:26:19.844Z,2.20
2023-04-15T11:28:52.976Z,2.53
2023-04-15T11:34:02.700Z,2.28
2023-04-15T11:36:35.549Z,1.88
2023-04-15T11:39:08.276Z,1.98
2023-04-15T11:41:43.660Z,2.05
2023-04-15T11:44:19.583Z,2.40
2023-04-15T11:46:52.171Z,2.22
2023-04-15T11:49:31.513Z,2.17
2023-04-15T11:52:11.636Z,2.70
2023-04-15T11:54:44.159Z,2.13
2023-04-15T11:57:16.978Z,2.25
2023-04-15T11:59:49.518Z,2.30
2023-04-15T12:02:32.745Z,2.33
2023-04-15T12:08:00.578Z,2.08
2023-04-15T12:10:33.178Z,1.48
2023-04-15T12:13:07.867Z,2.22
2023-04-15T12:15:40.397Z,1.92
2023-04-15T12:18:21.754Z,1.95
2023-04-15T12:20:54.900Z,2.00
2023-04-15T12:26:05.238Z,1.65
2023-04-15T12:28:37.829Z,1.77
2023-04-15T12:31:14.752Z,1.83
2023-04-15T12:33:50.110Z,1.98
2023-04-15T12:36:23.203Z,1.80
2023-04-15T12:41:28.353Z,1.75
2023-04-15T12:44:01.164Z,2.17
2023-04-15T12:46:37.556Z,1.80
2023-04-15T12:49:10.422Z,2.22
2023-04-15T12:51:43.445Z,2.08
2023-04-15T12:54:17.625Z,1.70
2023-04-15T12:56:51.621Z,1.40
2023-04-15T12:59:24.593Z,1.73
2023-04-15T13:01:57.398Z,2.20
2023-04-15T13:04:31.526Z,1.63
2023-04-15T13:07:04.491Z,1.55
2023-04-15T13:09:37.121Z,1.90
2023-04-15T13:12:09.713Z,1.30
2023-04-15T13:14:42.353Z,1.60
2023-04-15T13:17:14.962Z,1.40
2023-04-15T13:19:47.565Z,1.30
2023-04-15T13:22:20.117Z,1.60
2023-04-15T13:24:52.788Z,1.50
2023-04-15T13:27:25.323Z,1.48
2023-04-15T13:29:58.097Z,1.88
2023-04-15T13:32:38.445Z,1.88
2023-04-15T13:35:15.042Z,1.48
2023-04-15T13:37:48.132Z,1.80
2023-04-15T13:42:54.195Z,1.40
2023-04-15T13:45:27.272Z,1.73
2023-04-15T13:50:32.677Z,1.60
2023-04-15T13:53:05.451Z,1.60
2023-04-15T13:55:41.884Z,1.80
2023-04-15T13:58:14.642Z,2.08
2023-04-15T14:00:47.311Z,1.85
2023-04-15T14:03:19.991Z,1.45
2023-04-15T14:05:56.221Z,1.48
2023-04-15T14:08:28.758Z,2.50
2023-04-15T14:11:01.591Z,2.72
2023-04-15T14:13:34.130Z,2.75
2023-04-15T14:16:06.964Z,2.50
2023-04-15T14:18:40.179Z,2.08
2023-04-15T14:23:45.360Z,2.17
2023-04-15T14:26:17.929Z,1.80
2023-04-15T14:28:50.736Z,1.90
2023-04-15T14:31:23.287Z,2.20
2023-04-15T14:33:55.855Z,2.00
2023-04-15T14:36:28.701Z,2.25
2023-04-15T14:39:01.289Z,2.25
2023-04-15T14:41:33.841Z,2.15
2023-04-15T14:44:06.391Z,2.13
2023-04-15T14:46:41.005Z,1.85
2023-04-15T14:49:13.618Z,2.10
2023-04-15T14:51:46.747Z,1.83
2023-04-15T14:56:54.415Z,1.52
2023-04-15T14:59:27.029Z,1.42
2023-04-15T15:01:59.946Z,1.60
2023-04-15T15:04:33.722Z,1.30
2023-04-15T15:07:06.802Z,1.98
2023-04-15T15:09:39.380Z,1.52
2023-04-15T15:12:12.187Z,1.42
2023-04-15T15:14:44.688Z,1.88
2023-04-15T15:17:17.388Z,1.70
2023-04-15T15:19:50.142Z,1.58
2023-04-15T15:22:26.040Z,1.50
2023-04-15T15:25:00.049Z,1.30
2023-04-15T15:27:32.755Z,1.88
2023-04-15T15:30:07.066Z,1.83
2023-04-15T15:32:43.547Z,2.30
2023-04-15T15:35:16.683Z,1.20
2023-04-15T15:40:21.866Z,1.60
2023-04-15T15:42:54.640Z,2.28
2023-04-15T15:45:27.699Z,1.60
2023-04-15T15:48:01.694Z,2.13
2023-04-15T15:50:35.318Z,1.58
2023-04-15T15:53:07.919Z,1.77
2023-04-15T15:55:40.442Z,1.98
2023-04-15T15:58:12.977Z,2.03
2023-04-15T16:00:45.661Z,1.42
2023-04-15T16:03:18.622Z,1.63
2023-04-15T16:08:23.708Z,1.48
2023-04-15T16:10:56.350Z,1.70
2023-04-15T16:13:28.986Z,1.35
2023-04-15T16:16:01.519Z,1.38
2023-04-15T16:18:35.250Z,1.52
2023-04-15T16:21:08.615Z,1.63
2023-04-15T16:23:41.289Z,1.40
2023-04-15T16:26:13.974Z,1.48
2023-04-15T16:28:46.849Z,1.65
2023-04-15T16:31:19.440Z,1.67
2023-04-15T16:33:52.029Z,2.40
2023-04-15T16:36:24.631Z,1.60
2023-04-15T16:38:57.209Z,1.67
2023-04-15T16:41:29.715Z,1.52
2023-04-15T16:44:03.678Z,3.38
2023-04-15T16:46:36.975Z,1.45
2023-04-15T16:49:11.816Z,1.48
2023-04-15T16:51:47.146Z,1.80
2023-04-15T16:54:20.017Z,1.50
2023-04-15T16:56:53.435Z,1.63
2023-04-15T16:59:26.776Z,2.58
2023-04-15T17:02:00.298Z,1.60
2023-04-15T17:04:33.472Z,2.95
2023-04-15T17:07:11.268Z,2.70
2023-04-15T17:09:43.780Z,2.60
2023-04-15T17:12:16.408Z,2.42
2023-04-15T17:14:49.722Z,2.17
2023-04-15T17:17:23.035Z,1.83
2023-04-15T17:19:55.646Z,3.13
2023-04-15T17:22:28.341Z,3.20
2023-04-15T17:25:06.782Z,2.20
2023-04-15T17:27:39.485Z,3.47
2023-04-15T17:30:13.685Z,2.08
2023-04-15T17:32:46.280Z,2.00
2023-04-15T17:35:19.299Z,1.52
2023-04-15T17:37:55.573Z,2.00
2023-04-15T17:40:28.236Z,1.95
2023-04-15T17:43:01.197Z,1.90
2023-04-15T17:45:34.305Z,2.20
2023-04-15T17:50:40.422Z,1.80
2023-04-15T17:53:13.124Z,1.73
2023-04-15T17:55:46.662Z,1.55
2023-04-15T17:58:20.406Z,1.80
2023-04-15T18:00:53.029Z,2.08
2023-04-15T18:03:26.643Z,2.00
2023-04-15T18:06:00.954Z,2.00
2023-04-15T18:08:33.570Z,2.28
2023-04-15T18:11:06.665Z,2.05
2023-04-15T18:13:39.322Z,2.45
2023-04-15T18:16:11.895Z,2.58
2023-04-15T18:18:44.610Z,2.65
2023-04-15T18:21:17.171Z,2.30
2023-04-15T18:23:53.406Z,2.40
2023-04-15T18:26:26.207Z,2.20
2023-04-15T18:28:58.830Z,2.17
2023-04-15T18:31:32.122Z,2.78
2023-04-15T18:34:06.842Z,2.17
2023-04-15T18:36:39.735Z,1.95
2023-04-15T18:39:12.442Z,3.47
2023-04-15T18:41:44.958Z,2.80
2023-04-15T18:44:17.548Z,2.20
2023-04-15T18:46:50.214Z,2.38
2023-04-15T18:49:22.914Z,2.72
2023-04-15T18:51:55.800Z,2.03
2023-04-15T18:54:28.357Z,2.47
2023-04-15T18:57:01.293Z,5.03
2023-04-15T18:59:34.071Z,6.00
2023-04-15T19:02:07.686Z,5.70
2023-04-15T19:04:40.370Z,6.80
2023-04-15T19:07:12.975Z,5.50
2023-04-15T19:09:45.830Z,6.47
2023-04-15T19:12:18.398Z,5.60
2023-04-15T19:14:51.109Z,5.63
2023-04-15T19:17:23.923Z,4.82
2023-04-15T19:19:56.484Z,4.00
2023-04-15T19:22:30.772Z,2.95
2023-04-15T19:25:06.795Z,3.33
2023-04-15T19:27:39.676Z,2.72
2023-04-15T19:30:12.380Z,2.92
2023-04-15T19:32:45.083Z,2.72
2023-04-15T19:35:17.719Z,2.58
2023-04-15T19:37:50.346Z,2.60
2023-04-15T19:40:22.910Z,2.17
2023-04-15T19:42:55.656Z,2.50
2023-04-15T19:45:28.389Z,2.88
2023-04-15T19:48:01.267Z,3.22
2023-04-15T19:50:33.842Z,3.28
2023-04-15T19:53:06.482Z,2.80
2023-04-15T19:55:39.186Z,3.47
2023-04-15T19:58:11.926Z,3.13
2023-04-15T20:00:44.566Z,2.63
2023-04-15T20:03:17.907Z,2.30
2023-04-15T20:05:50.713Z,2.33
2023-04-15T20:08:23.249Z,2.35
2023-04-15T20:10:57.026Z,3.00
2023-04-15T20:13:29.631Z,2.63
2023-04-15T20:16:02.549Z,3.05
2023-04-15T20:18:35.341Z,2.88
2023-04-15T20:21:07.961Z,3.20
2023-04-15T20:23:41.193Z,3.35
2023-04-15T20:26:13.825Z,3.78
2023-04-15T20:28:46.496Z,3.13
2023-04-15T20:31:19.108Z,3.45
2023-04-15T20:33:51.755Z,3.08
2023-04-15T20:36:24.300Z,3.58
2023-04-15T20:38:56.961Z,3.60
2023-04-15T20:41:29.451Z,3.15
2023-04-15T20:44:02.007Z,2.58
2023-04-15T20:46:34.684Z,3.00
2023-04-15T20:49:07.505Z,3.05
2023-04-15T20:51:40.303Z,3.17
2023-04-15T20:54:12.942Z,3.38
2023-04-15T20:56:45.545Z,2.90
2023-04-15T20:59:18.165Z,2.22
2023-04-15T21:01:51.062Z,2.58
2023-04-15T21:04:24.650Z,2.17
2023-04-15T21:06:57.296Z,2.25
2023-04-15T21:09:29.949Z,2.78
2023-04-15T21:12:02.804Z,2.20
2023-04-15T21:14:37.159Z,1.83
2023-04-15T21:17:11.178Z,1.90
2023-04-15T21:19:44.110Z,1.80
2023-04-15T21:22:16.738Z,2.08
2023-04-15T21:24:49.581Z,2.08
2023-04-15T21:27:22.485Z,2.03
2023-04-15T21:29:55.070Z,1.88
2023-04-15T21:32:27.718Z,2.47
2023-04-15T21:35:00.302Z,1.80
2023-04-15T21:37:32.890Z,2.00
2023-04-15T21:40:06.221Z,2.30
2023-04-15T21:42:38.804Z,1.90
2023-04-15T21:45:11.818Z,1.85
2023-04-15T21:48:00.544Z,2.10
2023-04-15T21:50:37.498Z,1.90
2023-04-15T21:53:10.100Z,2.47
2023-04-15T21:55:42.701Z,1.42
2023-04-15T21:58:15.253Z,2.13
2023-04-15T22:00:48.051Z,2.13
2023-04-15T22:03:20.815Z,1.77
2023-04-15T22:05:53.572Z,1.80
2023-04-15T22:08:26.230Z,1.60
2023-04-15T22:10:58.801Z,1.60
2023-04-15T22:13:31.311Z,1.90
2023-04-15T22:16:03.996Z,1.92
2023-04-15T22:18:36.580Z,1.80
2023-04-15T22:21:09.171Z,2.20
2023-04-15T22:23:41.740Z,1.98
2023-04-15T22:26:14.333Z,1.77
2023-04-15T22:28:47.065Z,1.67
2023-04-15T22:31:19.790Z,1.83
2023-04-15T22:33:52.368Z,1.63
2023-04-15T22:36:25.780Z,1.83
2023-04-15T22:38:58.439Z,1.63
2023-04-15T22:41:31.184Z,1.95
2023-04-15T22:44:03.861Z,1.52
2023-04-15T22:46:36.519Z,2.25
2023-04-15T22:49:10.066Z,2.20
2023-04-15T22:51:42.628Z,2.60
2023-04-15T22:54:15.144Z,2.58
2023-04-15T22:56:47.721Z,1.90
2023-04-15T22:59:20.883Z,1.90
2023-04-15T23:01:53.858Z,2.03
2023-04-15T23:04:28.079Z,2.80
2023-04-15T23:07:01.212Z,2.17
2023-04-15T23:09:33.909Z,2.53
2023-04-15T23:12:06.760Z,2.38
2023-04-15T23:14:39.205Z,2.30
2023-04-15T23:17:11.923Z,2.35
2023-04-15T23:19:44.470Z,2.10
2023-04-15T23:22:17.080Z,1.90
2023-04-15T23:24:49.643Z,2.05
2023-04-15T23:27:23.087Z,1.45
2023-04-15T23:29:55.722Z,1.98
2023-04-15T23:32:28.281Z,1.80
2023-04-15T23:35:00.959Z,1.88
2023-04-15T23:37:33.553Z,1.38
2023-04-15T23:40:06.927Z,1.98
2023-04-15T23:42:39.535Z,1.77
2023-04-15T23:45:12.719Z,2.15
2023-04-15T23:47:45.176Z,1.80
2023-04-15T23:50:17.894Z,2.28
2023-04-15T23:52:50.430Z,3.13
2023-04-15T23:55:23.020Z,1.95
2023-04-15T23:57:56.412Z,2.15
